createdAt,value
2019-03-02T00:01:45.825Z,6.30
2019-03-02T00:04:14.186Z,6.30
2019-03-02T00:06:44.184Z,6.30
2019-03-02T00:09:13.170Z,6.40
2019-03-02T00:11:48.589Z,6.40
2019-03-02T00:14:19.962Z,6.40
2019-03-02T00:16:51.017Z,6.40
2019-03-02T00:19:19.938Z,6.40
2019-03-02T00:21:48.884Z,6.30
2019-03-02T00:24:17.901Z,6.40
2019-03-02T00:26:46.959Z,6.40
2019-03-02T00:29:15.914Z,6.40
2019-03-02T00:31:46.922Z,6.30
2019-03-02T00:34:16.850Z,6.40
2019-03-02T00:36:55.244Z,6.40
2019-03-02T00:39:24.326Z,6.40
2019-03-02T00:42:02.227Z,6.40
2019-03-02T00:44:31.164Z,6.30
2019-03-02T00:47:00.518Z,6.30
2019-03-02T00:49:30.476Z,6.20
2019-03-02T00:51:59.514Z,6.20
2019-03-02T00:54:28.510Z,6.20
2019-03-02T00:56:57.607Z,6.30
2019-03-02T00:59:26.542Z,6.30
2019-03-02T01:02:00.701Z,6.30
2019-03-02T01:04:29.355Z,6.30
2019-03-02T01:07:01.489Z,6.30
2019-03-02T01:09:38.482Z,6.30
2019-03-02T01:12:15.469Z,6.40
2019-03-02T01:14:45.518Z,6.50
2019-03-02T01:17:14.542Z,6.30
2019-03-02T01:19:43.638Z,6.40
2019-03-02T01:22:13.595Z,6.30
2019-03-02T01:24:43.591Z,6.30
2019-03-02T01:27:13.719Z,6.20
2019-03-02T01:29:42.656Z,6.20
2019-03-02T01:32:16.012Z,6.20
2019-03-02T01:34:43.311Z,6.30
2019-03-02T01:37:12.411Z,6.20
2019-03-02T01:39:41.445Z,6.30
2019-03-02T01:42:12.473Z,6.30
2019-03-02T01:44:43.448Z,6.20
2019-03-02T01:47:20.202Z,6.20
2019-03-02T01:49:50.110Z,6.20
2019-03-02T01:52:20.325Z,6.30
2019-03-02T01:54:52.465Z,6.20
2019-03-02T01:57:27.611Z,6.30
2019-03-02T01:59:56.538Z,6.20
2019-03-02T02:02:25.781Z,6.20
2019-03-02T02:04:57.456Z,6.20
2019-03-02T02:07:25.550Z,6.10
2019-03-02T02:09:54.533Z,6.10
2019-03-02T02:12:31.338Z,6.20
2019-03-02T02:15:07.819Z,6.10
2019-03-02T02:17:39.098Z,6.20
2019-03-02T02:20:11.083Z,6.10
2019-03-02T02:22:41.610Z,6.10
2019-03-02T02:25:13.124Z,6.10
2019-03-02T02:27:43.180Z,6.00
2019-03-02T02:30:24.652Z,6.10
2019-03-02T02:32:52.714Z,6.10
2019-03-02T02:35:21.844Z,6.20
2019-03-02T02:37:50.902Z,6.10
2019-03-02T02:40:20.122Z,6.10
2019-03-02T02:42:49.197Z,6.10
2019-03-02T02:45:18.340Z,6.10
2019-03-02T02:47:54.208Z,6.20
2019-03-02T02:50:29.625Z,6.20
2019-03-02T02:52:54.019Z,6.10
2019-03-02T02:55:24.060Z,6.10
2019-03-02T02:57:53.149Z,6.00
2019-03-02T03:00:24.740Z,6.00
2019-03-02T03:02:53.797Z,6.00
2019-03-02T03:05:28.884Z,5.90
2019-03-02T03:07:57.928Z,6.00
2019-03-02T03:10:32.773Z,6.10
2019-03-02T03:13:04.329Z,6.10
2019-03-02T03:15:51.051Z,6.10
2019-03-02T03:18:20.958Z,6.00
2019-03-02T03:20:50.740Z,6.00
2019-03-02T03:23:26.523Z,6.00
2019-03-02T03:25:57.055Z,5.90
2019-03-02T03:28:30.548Z,5.90
2019-03-02T03:30:58.042Z,6.00
2019-03-02T03:33:27.051Z,6.00
2019-03-02T03:35:58.091Z,5.90
2019-03-02T03:38:36.003Z,6.00
2019-03-02T03:41:06.698Z,6.10
2019-03-02T03:43:41.472Z,6.10
2019-03-02T03:46:07.518Z,6.10
2019-03-02T03:48:37.502Z,6.10
2019-03-02T03:51:10.590Z,6.10
2019-03-02T03:53:39.562Z,6.10
2019-03-02T03:56:08.591Z,6.00
2019-03-02T03:58:39.967Z,5.90
2019-03-02T04:01:16.822Z,5.90
2019-03-02T04:03:39.326Z,6.00
2019-03-02T04:06:09.425Z,6.00
2019-03-02T04:08:38.544Z,5.90
2019-03-02T04:11:09.472Z,6.00
2019-03-02T04:13:44.862Z,6.00
2019-03-02T04:16:10.436Z,6.00
2019-03-02T04:19:01.800Z,6.00
2019-03-02T04:21:44.635Z,6.00
2019-03-02T04:24:13.778Z,5.90
2019-03-02T04:26:45.763Z,6.00
2019-03-02T04:29:14.796Z,6.10
2019-03-02T04:31:48.154Z,6.00
2019-03-02T04:34:20.190Z,6.00
2019-03-02T04:36:52.233Z,6.00
2019-03-02T04:39:22.274Z,6.00
2019-03-02T04:41:57.043Z,5.90
2019-03-02T04:44:32.867Z,5.90
2019-03-02T04:47:01.814Z,6.00
2019-03-02T04:49:39.028Z,6.00
2019-03-02T04:52:08.002Z,6.00
2019-03-02T04:54:37.618Z,6.00
2019-03-02T04:57:08.685Z,6.00
2019-03-02T04:59:37.558Z,6.10
2019-03-02T05:02:06.549Z,6.00
2019-03-02T05:04:36.829Z,6.00
2019-03-02T05:07:06.174Z,6.00
2019-03-02T05:09:37.001Z,6.00
2019-03-02T05:12:06.177Z,6.10
2019-03-02T05:14:36.772Z,6.10
2019-03-02T05:17:07.340Z,6.10
2019-03-02T05:19:36.162Z,6.00
2019-03-02T05:22:05.332Z,6.00
2019-03-02T05:24:34.164Z,6.10
2019-03-02T05:27:03.337Z,6.10
2019-03-02T05:29:32.429Z,6.10
2019-03-02T05:32:01.353Z,6.10
2019-03-02T05:34:30.520Z,6.00
2019-03-02T05:36:59.685Z,6.00
2019-03-02T05:39:30.041Z,6.00
2019-03-02T05:41:58.957Z,6.00
2019-03-02T05:44:27.849Z,6.00
2019-03-02T05:46:57.778Z,5.90
2019-03-02T05:49:27.725Z,5.90
2019-03-02T05:51:56.740Z,6.00
2019-03-02T05:54:25.582Z,6.00
2019-03-02T05:56:54.424Z,5.90
2019-03-02T05:59:26.534Z,5.90
2019-03-02T06:01:54.116Z,5.90
2019-03-02T06:04:23.058Z,5.90
2019-03-02T06:06:54.067Z,6.00
2019-03-02T06:09:22.842Z,6.10
2019-03-02T06:11:51.928Z,6.10
2019-03-02T06:14:21.028Z,6.00
2019-03-02T06:16:50.094Z,6.00
2019-03-02T06:19:23.383Z,6.00
2019-03-02T06:21:50.174Z,5.90
2019-03-02T06:24:18.989Z,5.90
2019-03-02T06:26:48.181Z,5.80
2019-03-02T06:29:32.529Z,5.80
2019-03-02T06:32:03.269Z,5.90
2019-03-02T06:34:38.899Z,6.00
2019-03-02T06:37:07.917Z,5.90
2019-03-02T06:39:37.177Z,5.90
2019-03-02T06:42:09.777Z,5.90
2019-03-02T06:44:38.798Z,5.80
2019-03-02T06:47:09.901Z,5.90
2019-03-02T06:49:39.159Z,5.80
2019-03-02T06:52:09.196Z,5.80
2019-03-02T06:54:44.950Z,5.80
2019-03-02T06:57:14.070Z,5.90
2019-03-02T06:59:43.830Z,5.80
2019-03-02T07:02:13.718Z,5.80
2019-03-02T07:04:48.721Z,5.80
2019-03-02T07:07:18.615Z,5.90
2019-03-02T07:09:48.528Z,5.90
2019-03-02T07:12:17.498Z,5.80
2019-03-02T07:14:51.658Z,5.90
2019-03-02T07:17:38.182Z,5.90
2019-03-02T07:20:19.240Z,6.00
2019-03-02T07:22:52.484Z,5.90
2019-03-02T07:25:20.016Z,5.90
2019-03-02T07:27:48.999Z,5.90
2019-03-02T07:30:19.941Z,5.90
2019-03-02T07:32:49.973Z,6.00
2019-03-02T07:35:23.957Z,6.10
2019-03-02T07:37:52.895Z,6.00
2019-03-02T07:40:30.996Z,6.10
2019-03-02T07:43:11.210Z,6.10
2019-03-02T07:45:48.991Z,6.10
2019-03-02T07:48:18.069Z,6.00
2019-03-02T07:50:48.110Z,6.10
2019-03-02T07:53:16.954Z,6.20
2019-03-02T07:55:45.970Z,6.20
2019-03-02T07:58:16.658Z,6.20
2019-03-02T08:00:46.666Z,6.30
2019-03-02T08:03:16.554Z,6.20
2019-03-02T08:05:46.913Z,6.20
2019-03-02T08:08:16.126Z,6.30
2019-03-02T08:10:45.138Z,6.40
2019-03-02T08:13:14.173Z,6.40
2019-03-02T08:15:46.521Z,6.40
2019-03-02T08:18:15.754Z,6.30
2019-03-02T08:20:46.694Z,6.30
2019-03-02T08:23:16.646Z,6.30
2019-03-02T08:25:45.682Z,6.30
2019-03-02T08:28:17.566Z,6.30
2019-03-02T08:30:46.490Z,6.40
2019-03-02T08:33:15.484Z,6.50
2019-03-02T08:35:50.273Z,6.60
2019-03-02T08:38:25.157Z,6.60
2019-03-02T08:41:03.036Z,6.50
2019-03-02T08:43:32.023Z,6.60
2019-03-02T08:46:03.551Z,6.90
2019-03-02T08:48:31.575Z,6.70
2019-03-02T08:51:01.577Z,6.80
2019-03-02T08:53:36.555Z,6.80
2019-03-02T08:56:05.960Z,6.80
2019-03-02T08:58:39.283Z,6.90
2019-03-02T09:01:10.350Z,7.00
2019-03-02T09:03:39.382Z,7.10
2019-03-02T09:06:11.547Z,7.00
2019-03-02T09:08:41.308Z,7.00
2019-03-02T09:11:16.522Z,6.80
2019-03-02T09:13:45.595Z,6.80
2019-03-02T09:16:14.706Z,6.90
2019-03-02T09:18:45.680Z,6.90
2019-03-02T09:21:14.470Z,7.00
2019-03-02T09:23:45.830Z,7.00
2019-03-02T09:26:15.045Z,6.90
2019-03-02T09:28:45.663Z,7.00
2019-03-02T09:31:15.714Z,6.90
2019-03-02T09:33:46.331Z,6.90
2019-03-02T09:36:16.424Z,6.80
2019-03-02T09:38:45.407Z,6.70
2019-03-02T09:41:14.481Z,6.80
2019-03-02T09:43:49.405Z,6.80
2019-03-02T09:46:21.275Z,6.90
2019-03-02T09:48:51.311Z,6.90
2019-03-02T09:51:20.393Z,7.00
2019-03-02T09:53:49.462Z,7.10
2019-03-02T09:56:18.445Z,7.20
2019-03-02T09:58:47.459Z,7.20
2019-03-02T10:01:16.659Z,7.20
2019-03-02T10:03:45.794Z,7.20
2019-03-02T10:06:15.023Z,7.00
2019-03-02T10:08:45.868Z,7.00
2019-03-02T10:11:15.202Z,7.10
2019-03-02T10:13:44.954Z,7.10
2019-03-02T10:16:16.386Z,7.00
2019-03-02T10:18:45.820Z,6.90
2019-03-02T10:21:17.211Z,6.90
2019-03-02T10:23:46.320Z,6.80
2019-03-02T10:26:15.307Z,6.80
2019-03-02T10:28:47.482Z,6.80
2019-03-02T10:31:16.520Z,6.80
2019-03-02T10:33:45.677Z,6.80
2019-03-02T10:36:16.984Z,6.90
2019-03-02T10:38:57.430Z,7.00
2019-03-02T10:41:29.248Z,7.00
2019-03-02T10:43:58.404Z,7.10
2019-03-02T10:46:33.348Z,7.10
2019-03-02T10:49:10.188Z,7.20
2019-03-02T10:51:41.057Z,7.40
2019-03-02T10:54:16.097Z,7.60
2019-03-02T10:56:53.173Z,7.80
2019-03-02T10:59:22.210Z,7.80
2019-03-02T11:01:51.171Z,8.00
2019-03-02T11:04:41.007Z,8.20
2019-03-02T11:07:33.211Z,8.30
2019-03-02T11:10:21.431Z,8.20
2019-03-02T11:13:02.869Z,8.30
2019-03-02T11:15:46.647Z,8.40
2019-03-02T11:18:25.750Z,8.50
2019-03-02T11:21:01.630Z,8.50
2019-03-02T11:23:45.284Z,8.70
2019-03-02T11:26:39.662Z,8.80
2019-03-02T11:29:28.487Z,9.00
2019-03-02T11:32:10.983Z,9.10
2019-03-02T11:35:10.441Z,9.40
2019-03-02T11:38:02.789Z,9.70
2019-03-02T11:40:43.303Z,9.80
2019-03-02T11:43:23.782Z,9.80
2019-03-02T11:46:27.710Z,9.70
2019-03-02T11:49:30.051Z,9.60
2019-03-02T11:52:04.636Z,9.60
2019-03-02T11:54:47.107Z,9.70
2019-03-02T11:57:47.226Z,9.60
2019-03-02T12:00:37.509Z,9.70
2019-03-02T12:03:08.602Z,9.70
2019-03-02T12:05:55.358Z,9.80
2019-03-02T12:08:36.118Z,10.00
2019-03-02T12:11:19.535Z,10.00
2019-03-02T12:14:05.981Z,10.10
2019-03-02T12:17:10.574Z,10.20
2019-03-02T12:20:08.885Z,10.10
2019-03-02T12:22:53.736Z,10.00
2019-03-02T12:25:35.145Z,10.00
2019-03-02T12:28:22.193Z,9.90
2019-03-02T12:31:24.274Z,9.70
2019-03-02T12:34:01.793Z,9.80
2019-03-02T12:37:00.698Z,9.80
2019-03-02T12:40:02.989Z,10.00
2019-03-02T12:42:46.854Z,10.30
2019-03-02T12:45:45.329Z,10.40
2019-03-02T12:48:42.479Z,10.50
2019-03-02T12:51:29.031Z,10.50
2019-03-02T12:54:15.703Z,10.50
2019-03-02T12:57:08.694Z,10.60
2019-03-02T12:59:53.459Z,10.60
2019-03-02T13:02:53.550Z,10.60
2019-03-02T13:05:47.489Z,10.50
2019-03-02T13:08:28.034Z,10.40
2019-03-02T13:11:08.183Z,10.50
2019-03-02T13:13:56.625Z,10.60
2019-03-02T13:16:46.569Z,10.60
2019-03-02T13:19:33.475Z,10.40
2019-03-02T13:22:20.593Z,10.30
2019-03-02T13:25:07.666Z,10.40
2019-03-02T13:28:14.137Z,10.40
2019-03-02T13:30:50.991Z,10.30
2019-03-02T13:33:50.891Z,10.40
2019-03-02T13:36:24.974Z,10.40
2019-03-02T13:39:24.937Z,10.30
2019-03-02T13:42:15.412Z,10.10
2019-03-02T13:45:14.984Z,10.10
2019-03-02T13:47:50.189Z,10.30
2019-03-02T13:50:37.206Z,10.50
2019-03-02T13:53:20.831Z,10.60
2019-03-02T13:56:08.286Z,10.60
2019-03-02T13:58:42.885Z,10.60
2019-03-02T14:01:27.082Z,10.70
2019-03-02T14:04:18.241Z,10.60
2019-03-02T14:07:07.798Z,10.50
2019-03-02T14:09:54.689Z,10.30
2019-03-02T14:12:43.020Z,10.30
2019-03-02T14:15:31.542Z,10.20
2019-03-02T14:18:24.369Z,10.20
2019-03-02T14:21:11.494Z,10.20
2019-03-02T14:23:57.338Z,10.10
2019-03-02T14:26:48.124Z,10.10
2019-03-02T14:29:25.310Z,9.80
2019-03-02T14:32:13.839Z,9.80
2019-03-02T14:34:52.804Z,9.80
2019-03-02T14:37:27.406Z,9.80
2019-03-02T14:40:10.921Z,9.70
2019-03-02T14:43:09.010Z,9.70
2019-03-02T14:45:56.112Z,9.70
2019-03-02T14:48:59.327Z,9.80
2019-03-02T14:51:43.491Z,9.80
2019-03-02T14:54:29.696Z,9.90
2019-03-02T14:57:24.707Z,9.80
2019-03-02T15:00:04.394Z,9.70
2019-03-02T15:02:55.682Z,9.70
2019-03-02T15:05:43.688Z,9.70
2019-03-02T15:08:37.424Z,9.70
2019-03-02T15:11:20.741Z,9.50
2019-03-02T15:14:24.190Z,9.40
2019-03-02T15:17:30.291Z,9.50
2019-03-02T15:20:14.370Z,9.70
2019-03-02T15:23:17.597Z,9.60
2019-03-02T15:25:53.420Z,9.70
2019-03-02T15:28:41.510Z,9.60
2019-03-02T15:31:39.257Z,9.60
2019-03-02T15:34:17.610Z,9.70
2019-03-02T15:37:05.963Z,9.80
2019-03-02T15:39:49.303Z,9.80
2019-03-02T15:42:28.803Z,9.60
2019-03-02T15:45:27.851Z,9.70
2019-03-02T15:48:27.244Z,9.80
2019-03-02T15:51:26.950Z,9.70
2019-03-02T15:54:16.442Z,9.70
2019-03-02T15:57:04.629Z,9.60
2019-03-02T16:00:13.280Z,9.40
2019-03-02T16:03:04.757Z,9.50
2019-03-02T16:06:03.471Z,9.40
2019-03-02T16:08:52.399Z,9.30
2019-03-02T16:11:40.486Z,9.10
2019-03-02T16:14:22.453Z,9.20
2019-03-02T16:17:14.431Z,9.10
2019-03-02T16:19:57.613Z,9.10
2019-03-02T16:22:51.976Z,9.10
2019-03-02T16:25:54.299Z,9.20
2019-03-02T16:28:57.510Z,9.10
2019-03-02T16:31:33.069Z,9.00
2019-03-02T16:34:18.478Z,9.00
2019-03-02T16:37:02.283Z,8.90
2019-03-02T16:39:48.259Z,8.90
2019-03-02T16:42:59.537Z,8.90
2019-03-02T16:45:56.779Z,8.90
2019-03-02T16:48:53.558Z,8.90
2019-03-02T16:52:17.731Z,8.80
2019-03-02T16:54:58.030Z,8.70
2019-03-02T16:58:08.498Z,8.70
2019-03-02T17:01:06.433Z,8.70
2019-03-02T17:04:04.450Z,8.60
2019-03-02T17:07:22.252Z,8.60
2019-03-02T17:10:14.836Z,8.50
2019-03-02T17:13:12.078Z,8.20
2019-03-02T17:15:54.943Z,8.10
2019-03-02T17:18:56.469Z,8.00
2019-03-02T17:21:57.521Z,8.00
2019-03-02T17:24:45.961Z,7.90
2019-03-02T17:27:26.175Z,7.80
2019-03-02T17:30:17.757Z,7.70
2019-03-02T17:33:01.592Z,7.70
2019-03-02T17:35:49.737Z,7.70
2019-03-02T17:38:25.572Z,7.60
2019-03-02T17:41:22.453Z,7.70
2019-03-02T17:44:22.252Z,7.70
2019-03-02T17:47:10.285Z,7.60
2019-03-02T17:50:00.549Z,7.70
2019-03-02T17:52:50.366Z,7.70
2019-03-02T17:55:36.091Z,7.70
2019-03-02T17:58:28.043Z,7.70
2019-03-02T18:01:23.152Z,7.70
2019-03-02T18:04:31.786Z,7.60
2019-03-02T18:07:10.149Z,7.70
2019-03-02T18:10:03.965Z,7.70
2019-03-02T18:12:48.528Z,7.80
2019-03-02T18:15:25.962Z,7.80
2019-03-02T18:18:03.851Z,7.90
2019-03-02T18:20:34.417Z,7.90
2019-03-02T18:23:03.357Z,7.80
2019-03-02T18:25:32.382Z,7.80
2019-03-02T18:28:01.396Z,7.80
2019-03-02T18:30:30.444Z,7.70
2019-03-02T18:33:04.150Z,7.50
2019-03-02T18:35:34.176Z,7.40
2019-03-02T18:38:04.511Z,7.30
2019-03-02T18:40:35.089Z,7.30
2019-03-02T18:43:08.193Z,7.30
2019-03-02T18:45:39.228Z,7.30
2019-03-02T18:48:11.877Z,7.30
2019-03-02T18:50:50.307Z,7.30
2019-03-02T18:53:19.234Z,7.40
2019-03-02T18:55:48.115Z,7.40
2019-03-02T18:58:17.023Z,7.50
2019-03-02T19:00:47.770Z,7.50
2019-03-02T19:03:16.696Z,7.50
2019-03-02T19:05:46.244Z,7.60
2019-03-02T19:08:17.230Z,7.60
2019-03-02T19:10:46.085Z,7.60
2019-03-02T19:13:15.133Z,7.60
2019-03-02T19:15:53.258Z,7.70
2019-03-02T19:18:15.083Z,7.60
2019-03-02T19:20:44.191Z,7.60
2019-03-02T19:23:13.341Z,7.70
2019-03-02T19:25:42.383Z,7.60
2019-03-02T19:28:13.533Z,7.70
2019-03-02T19:30:42.462Z,7.60
2019-03-02T19:33:11.471Z,7.70
2019-03-02T19:35:40.406Z,7.70
2019-03-02T19:38:09.392Z,7.60
2019-03-02T19:40:38.406Z,7.60
2019-03-02T19:43:07.266Z,7.50
2019-03-02T19:45:42.353Z,7.50
2019-03-02T19:48:17.398Z,7.50
2019-03-02T19:50:46.341Z,7.50
2019-03-02T19:53:16.135Z,7.40
2019-03-02T19:55:44.994Z,7.30
2019-03-02T19:58:15.953Z,7.20
2019-03-02T20:00:44.973Z,7.20
2019-03-02T20:03:13.913Z,7.30
2019-03-02T20:05:42.938Z,7.30
2019-03-02T20:08:11.941Z,7.20
2019-03-02T20:10:40.937Z,7.20
2019-03-02T20:13:09.917Z,7.10
2019-03-02T20:15:38.964Z,7.00
2019-03-02T20:18:08.473Z,6.90
2019-03-02T20:20:37.481Z,6.90
2019-03-02T20:23:06.500Z,6.80
2019-03-02T20:25:36.566Z,6.80
2019-03-02T20:28:05.522Z,6.80
2019-03-02T20:30:34.531Z,6.80
2019-03-02T20:33:03.556Z,6.50
2019-03-02T20:35:32.481Z,6.70
2019-03-02T20:38:01.494Z,6.70
2019-03-02T20:40:30.617Z,6.60
2019-03-02T20:42:59.636Z,6.60
2019-03-02T20:45:28.635Z,6.60
2019-03-02T20:47:58.416Z,6.40
2019-03-02T20:50:27.342Z,6.40
2019-03-02T20:52:56.293Z,6.50
2019-03-02T20:55:26.393Z,6.50
2019-03-02T20:57:55.379Z,6.50
2019-03-02T21:00:26.154Z,6.60
2019-03-02T21:02:58.254Z,6.60
2019-03-02T21:05:35.995Z,6.70
2019-03-02T21:08:10.650Z,6.70
2019-03-02T21:10:43.709Z,6.80
2019-03-02T21:13:13.790Z,6.90
2019-03-02T21:15:43.129Z,6.90
2019-03-02T21:18:12.138Z,6.90
2019-03-02T21:20:41.217Z,6.90
2019-03-02T21:23:12.420Z,6.90
2019-03-02T21:25:41.425Z,6.90
2019-03-02T21:28:10.446Z,6.90
2019-03-02T21:30:39.399Z,7.00
2019-03-02T21:33:14.757Z,7.00
2019-03-02T21:35:50.191Z,7.00
2019-03-02T21:38:19.223Z,7.10
2019-03-02T21:40:48.239Z,7.10
2019-03-02T21:43:17.192Z,7.00
2019-03-02T21:45:46.143Z,7.10
2019-03-02T21:48:15.088Z,7.00
2019-03-02T21:50:44.347Z,7.00
2019-03-02T21:53:13.291Z,6.90
2019-03-02T21:55:42.367Z,6.80
2019-03-02T21:58:11.463Z,6.90
2019-03-02T22:00:40.597Z,7.00
2019-03-02T22:03:09.690Z,7.00
2019-03-02T22:05:38.775Z,7.00
2019-03-02T22:08:07.777Z,7.00
2019-03-02T22:10:49.326Z,6.90
2019-03-02T22:13:18.470Z,6.90
2019-03-02T22:15:47.677Z,6.90
2019-03-02T22:18:16.688Z,7.00
2019-03-02T22:20:45.804Z,7.00
2019-03-02T22:23:18.018Z,6.90
2019-03-02T22:25:47.040Z,6.80
2019-03-02T22:28:16.021Z,6.90
2019-03-02T22:30:45.092Z,7.00
2019-03-02T22:33:14.172Z,7.00
2019-03-02T22:35:43.365Z,7.00
2019-03-02T22:38:19.497Z,7.10
2019-03-02T22:40:54.722Z,7.10
2019-03-02T22:43:27.809Z,7.10
2019-03-02T22:45:56.885Z,7.00
2019-03-02T22:48:27.041Z,7.00
2019-03-02T22:50:56.058Z,7.10
2019-03-02T22:53:25.107Z,7.00
2019-03-02T22:55:54.131Z,6.90
2019-03-02T22:58:31.027Z,6.90
2019-03-02T23:01:26.481Z,7.00
2019-03-02T23:03:55.457Z,7.00
2019-03-02T23:06:24.386Z,6.90
2019-03-02T23:08:53.413Z,7.00
2019-03-02T23:11:26.578Z,7.10
2019-03-02T23:13:55.620Z,7.10
2019-03-02T23:16:24.574Z,7.10
2019-03-02T23:18:53.486Z,7.00
2019-03-02T23:21:28.161Z,7.10
2019-03-02T23:23:58.152Z,7.10
2019-03-02T23:26:28.161Z,7.00
2019-03-02T23:28:57.182Z,7.00
2019-03-02T23:31:32.271Z,7.00
2019-03-02T23:34:01.289Z,6.90
2019-03-02T23:36:30.263Z,7.00
2019-03-02T23:38:59.185Z,7.00
2019-03-02T23:41:28.061Z,7.00
2019-03-02T23:43:57.863Z,7.10
2019-03-02T23:46:26.732Z,7.10
2019-03-02T23:48:55.675Z,7.10
2019-03-02T23:51:24.545Z,7.20
2019-03-02T23:53:53.526Z,7.20
2019-03-02T23:56:22.476Z,7.20
2019-03-02T23:58:51.421Z,7.20
